Time;durP1;ratioP1;P1;durP2;ratioP2;P2;SDS_P1;SDS_P2;PMS_P1;PMS_P2;Temp;Humidity;BMP_temperature;BMP_pressure;BME280_temperature;BME280_humidity;BME280_pressure;Samples;Min_cycle;Max_cycle;Signal;HPM_P1;HPM_P2
2022/09/26 00:00:36;;;;;;;5.68;2.58;;;11.10;99.90;;;;;;4971470;28;20431;-75
2022/09/26 00:03:02;;;;;;;8.10;2.65;;;11.10;99.90;;;;;;4973308;28;20035;-75
2022/09/26 00:05:31;;;;;;;7.97;2.40;;;11.10;99.90;;;;;;4972559;28;20952;-75
2022/09/26 00:07:57;;;;;;;4.72;2.47;;;11.10;99.90;;;;;;4973240;28;20023;-75
2022/09/26 00:10:22;;;;;;;4.80;2.65;;;11.20;99.90;;;;;;4972690;28;20019;-75
2022/09/26 00:12:48;;;;;;;3.55;2.35;;;11.20;99.90;;;;;;4972948;28;20034;-75
2022/09/26 00:15:14;;;;;;;4.25;2.53;;;11.20;99.90;;;;;;4970963;28;20030;-75
2022/09/26 00:17:39;;;;;;;3.58;2.42;;;11.30;99.90;;;;;;4987145;28;20133;-74
2022/09/26 00:20:05;;;;;;;3.50;2.53;;;11.30;99.90;;;;;;4972460;28;20054;-75
2022/09/26 00:22:31;;;;;;;4.22;2.47;;;11.30;99.90;;;;;;4972385;28;20027;-75
2022/09/26 00:24:56;;;;;;;5.18;2.15;;;11.20;99.90;;;;;;4972666;28;20042;-75
2022/09/26 00:27:22;;;;;;;4.68;2.42;;;11.30;99.90;;;;;;4972225;28;20483;-75
2022/09/26 00:29:48;;;;;;;6.68;2.25;;;11.30;99.90;;;;;;4971865;28;20383;-75
2022/09/26 00:32:14;;;;;;;8.32;2.80;;;11.30;99.90;;;;;;4970089;28;20030;-75
2022/09/26 00:34:39;;;;;;;5.20;2.70;;;11.30;99.90;;;;;;4972597;28;20074;-75
2022/09/26 00:37:05;;;;;;;5.95;2.85;;;11.30;99.90;;;;;;4969929;28;20046;-74
2022/09/26 00:39:30;;;;;;;6.22;2.78;;;11.30;99.90;;;;;;4986861;28;20031;-75
2022/09/26 00:41:56;;;;;;;6.85;2.63;;;11.30;99.90;;;;;;4972450;28;20059;-75
2022/09/26 00:44:40;;;;;;;3.67;2.70;;;11.40;99.90;;;;;;4971109;28;20073;-75
2022/09/26 00:47:15;;;;;;;8.70;2.17;;;11.40;99.90;;;;;;4971223;28;20038;-74
2022/09/26 00:49:43;;;;;;;5.55;2.58;;;11.40;99.90;;;;;;4972688;28;20058;-75
2022/09/26 00:52:12;;;;;;;5.03;3.10;;;11.40;99.90;;;;;;4970853;28;20101;-75
2022/09/26 00:54:44;;;;;;;4.40;3.03;;;11.40;99.90;;;;;;4972240;28;20035;-74
2022/09/26 00:57:15;;;;;;;5.10;3.42;;;11.40;99.90;;;;;;4972021;28;20394;-75
2022/09/26 00:59:47;;;;;;;9.13;3.00;;;11.40;99.90;;;;;;4970248;28;20147;-75
2022/09/26 01:02:13;;;;;;;5.53;2.75;;;11.40;99.90;;;;;;4972040;28;20457;-75
2022/09/26 01:04:41;;;;;;;5.85;3.00;;;11.50;99.90;;;;;;4986818;28;20369;-75
2022/09/26 01:07:12;;;;;;;4.60;2.78;;;11.40;99.90;;;;;;4972403;28;20098;-75
2022/09/26 01:09:38;;;;;;;3.97;2.72;;;11.50;99.90;;;;;;4972273;28;20027;-75
2022/09/26 01:12:05;;;;;;;3.88;3.33;;;11.40;99.90;;;;;;4972309;28;20106;-75
2022/09/26 01:14:31;;;;;;;4.47;3.05;;;11.40;99.90;;;;;;4970385;28;20034;-74
2022/09/26 01:16:57;;;;;;;5.68;2.83;;;11.40;99.90;;;;;;4971044;28;20030;-75
2022/09/26 01:20:16;;;;;;;6.20;3.08;;;11.40;99.90;;;;;;4971699;28;20444;-75
2022/09/26 01:23:02;;;;;;;6.53;2.78;;;11.50;99.90;;;;;;4987061;28;20023;-75
2022/09/26 01:25:49;;;;;;;6.20;2.63;;;11.40;99.90;;;;;;4971708;28;20027;-75
2022/09/26 01:28:53;;;;;;;5.85;2.80;;;11.40;99.90;;;;;;4970947;28;20023;-75
2022/09/26 01:34:53;;;;;;;8.75;2.55;;;11.40;99.90;;;;;;4964700;28;20046;-75
2022/09/26 01:37:40;;;;;;;4.47;2.53;;;11.40;99.90;;;;;;4971468;28;20127;-75
2022/09/26 01:40:30;;;;;;;6.28;2.47;;;11.40;99.90;;;;;;4971749;28;20046;-75
2022/09/26 01:43:19;;;;;;;4.18;2.28;;;11.40;99.90;;;;;;4951870;28;20086;-75
2022/09/26 01:46:13;;;;;;;4.45;1.90;;;11.40;99.90;;;;;;4971275;28;20053;-75
2022/09/26 01:48:47;;;;;;;7.32;2.90;;;11.40;99.90;;;;;;4971897;28;20054;-74
2022/09/26 01:51:22;;;;;;;5.30;2.47;;;11.40;99.90;;;;;;4970398;28;20513;-75
2022/09/26 01:53:55;;;;;;;7.30;2.67;;;11.50;99.90;;;;;;4971765;28;20102;-75
2022/09/26 01:56:27;;;;;;;8.55;2.65;;;11.50;99.90;;;;;;4970702;28;20503;-75
2022/09/26 01:59:04;;;;;;;8.02;2.40;;;11.50;99.90;;;;;;4973782;28;20511;-75
2022/09/26 02:01:34;;;;;;;5.43;2.33;;;11.50;99.90;;;;;;4975104;28;20435;-75
2022/09/26 02:04:08;;;;;;;10.52;2.85;;;11.50;99.90;;;;;;4974335;28;20031;-75
2022/09/26 02:07:04;;;;;;;5.63;2.15;;;11.50;99.90;;;;;;4955999;29;20031;-75
2022/09/26 02:09:46;;;;;;;4.35;1.95;;;11.50;99.90;;;;;;4970821;28;20454;-75
2022/09/26 02:12:24;;;;;;;5.43;2.20;;;11.50;99.90;;;;;;4988854;28;20431;-75
2022/09/26 02:14:51;;;;;;;4.60;1.88;;;11.50;99.90;;;;;;4975418;28;20391;-75
2022/09/26 02:17:24;;;;;;;5.85;2.25;;;11.50;99.90;;;;;;4974842;28;20398;-75
2022/09/26 02:19:57;;;;;;;5.63;2.10;;;11.50;99.90;;;;;;4973928;28;20046;-75
2022/09/26 02:22:30;;;;;;;10.90;2.50;;;11.50;99.90;;;;;;4974830;28;20042;-75
2022/09/26 02:24:56;;;;;;;6.28;2.33;;;11.50;99.90;;;;;;4975122;28;20023;-75
2022/09/26 02:27:23;;;;;;;10.02;3.33;;;11.50;99.90;;;;;;4972677;28;20660;-75
2022/09/26 02:29:48;;;;;;;7.20;2.42;;;11.50;99.90;;;;;;4975114;28;20034;-75
2022/09/26 02:32:19;;;;;;;5.93;2.03;;;11.50;99.90;;;;;;4974034;28;20422;-75
2022/09/26 02:34:47;;;;;;;5.25;2.20;;;11.50;99.90;;;;;;4974060;28;20480;-74
2022/09/26 02:37:14;;;;;;;5.32;2.38;;;11.50;99.90;;;;;;4974569;28;20046;-75
2022/09/26 02:39:42;;;;;;;7.05;2.03;;;11.50;99.90;;;;;;4974661;28;20143;-75
2022/09/26 02:42:25;;;;;;;7.68;2.25;;;11.50;99.90;;;;;;4974088;28;20448;-74
2022/09/26 02:45:10;;;;;;;5.18;1.60;;;11.50;99.90;;;;;;4974390;28;20518;-75
2022/09/26 02:48:03;;;;;;;7.22;1.90;;;11.50;99.90;;;;;;4974387;28;20035;-75
2022/09/26 02:50:46;;;;;;;;;;;11.50;99.90;;;;;;4972716;28;20091;-75
2022/09/26 02:53:20;;;;;;;;;;;11.50;99.90;;;;;;4973495;28;20121;-74
2022/09/26 02:56:08;;;;;;;5.78;1.35;;;11.50;99.90;;;;;;4987562;28;19933;-75
2022/09/26 02:59:12;;;;;;;5.35;1.90;;;11.50;99.90;;;;;;4974436;28;20116;-75
2022/09/26 03:01:55;;;;;;;4.53;1.90;;;11.50;99.90;;;;;;4973956;28;20379;-75
2022/09/26 03:04:49;;;;;;;3.10;1.60;;;11.60;99.90;;;;;;4973131;28;20023;-74
2022/09/26 03:07:25;;;;;;;5.95;1.63;;;11.50;99.90;;;;;;4969542;28;20486;-75
2022/09/26 03:09:53;;;;;;;5.20;1.40;;;11.60;99.90;;;;;;4973922;28;20027;-75
2022/09/26 03:12:21;;;;;;;4.05;1.65;;;11.50;99.90;;;;;;4973771;28;20038;-75
2022/09/26 03:14:48;;;;;;;6.25;2.10;;;11.60;99.90;;;;;;4974081;28;20035;-74
2022/09/26 03:17:17;;;;;;;5.93;1.67;;;11.50;99.90;;;;;;4973316;28;20038;-75
2022/09/26 03:19:51;;;;;;;6.13;1.70;;;11.50;99.90;;;;;;4972303;28;20539;-74
2022/09/26 03:22:17;;;;;;;4.85;1.85;;;11.50;99.90;;;;;;4973320;28;20395;-75
2022/09/26 03:24:44;;;;;;;4.50;1.75;;;11.50;99.90;;;;;;4973750;28;20427;-74
2022/09/26 03:27:13;;;;;;;5.80;1.48;;;11.50;99.90;;;;;;4973270;28;20031;-74
2022/09/26 03:29:38;;;;;;;6.45;1.52;;;11.40;99.90;;;;;;4973913;28;20031;-75
2022/09/26 03:32:05;;;;;;;5.72;1.45;;;11.40;99.90;;;;;;4973903;28;20030;-74
2022/09/26 03:34:30;;;;;;;5.63;1.50;;;11.40;99.90;;;;;;4970945;28;20510;-74
2022/09/26 03:36:56;;;;;;;4.10;1.48;;;11.40;99.90;;;;;;4972833;28;20035;-75
2022/09/26 03:39:22;;;;;;;5.07;1.58;;;11.40;99.90;;;;;;4972958;28;20559;-74
2022/09/26 03:41:47;;;;;;;5.18;1.52;;;11.30;99.90;;;;;;4973374;28;20364;-74
2022/09/26 03:44:14;;;;;;;3.75;1.48;;;11.30;99.90;;;;;;4988279;28;20047;-75
2022/09/26 03:46:41;;;;;;;6.03;1.42;;;11.30;99.90;;;;;;4973023;28;20026;-75
2022/09/26 03:49:07;;;;;;;6.15;1.52;;;11.30;99.90;;;;;;4972221;28;20034;-74
2022/09/26 03:51:33;;;;;;;4.07;1.13;;;11.20;99.90;;;;;;4973154;28;20467;-75
2022/09/26 03:53:58;;;;;;;6.07;1.40;;;11.20;99.90;;;;;;4972206;28;20031;-74
2022/09/26 03:56:25;;;;;;;4.32;1.40;;;11.20;99.90;;;;;;4972798;28;20372;-75
2022/09/26 03:58:51;;;;;;;4.45;1.05;;;11.20;99.90;;;;;;4973185;28;20373;-74
2022/09/26 04:01:20;;;;;;;4.40;0.98;;;11.20;99.90;;;;;;4972951;28;20030;-74
2022/09/26 04:03:47;;;;;;;5.60;1.27;;;11.20;99.90;;;;;;4973080;28;20030;-74
2022/09/26 04:06:18;;;;;;;5.90;1.05;;;11.10;99.90;;;;;;4972835;28;20027;-74
2022/09/26 04:08:44;;;;;;;4.97;1.02;;;11.10;99.90;;;;;;4972018;28;20019;-74
2022/09/26 04:11:12;;;;;;;2.83;1.08;;;11.10;99.90;;;;;;4972662;28;20034;-75
2022/09/26 04:13:38;;;;;;;6.70;1.25;;;11.10;99.90;;;;;;4972982;28;20030;-74
2022/09/26 04:16:05;;;;;;;5.05;1.00;;;11.10;99.90;;;;;;4972784;28;20027;-75
2022/09/26 04:18:32;;;;;;;5.57;1.00;;;11.10;99.90;;;;;;4971917;28;20041;-74
2022/09/26 04:21:09;;;;;;;3.35;0.82;;;11.00;99.90;;;;;;4971656;28;20085;-74
2022/09/26 04:23:37;;;;;;;9.63;0.90;;;11.10;99.90;;;;;;4972028;28;20058;-75
2022/09/26 04:26:03;;;;;;;3.78;0.98;;;11.00;99.90;;;;;;4972895;28;20027;-74
2022/09/26 04:28:29;;;;;;;3.20;0.80;;;11.10;99.90;;;;;;4972179;28;20497;-74
2022/09/26 04:30:59;;;;;;;4.88;1.00;;;11.00;99.90;;;;;;4971413;28;20023;-75
2022/09/26 04:33:25;;;;;;;3.08;1.35;;;11.10;99.90;;;;;;4971864;28;20483;-74
2022/09/26 04:35:51;;;;;;;5.55;1.17;;;11.00;99.90;;;;;;4972426;28;20038;-74
2022/09/26 04:38:17;;;;;;;4.82;1.05;;;11.10;99.90;;;;;;4986260;28;20043;-74
2022/09/26 04:40:43;;;;;;;4.57;0.80;;;11.10;99.90;;;;;;4972032;28;20121;-75
2022/09/26 04:43:10;;;;;;;2.38;0.88;;;11.10;99.90;;;;;;4972414;28;20479;-75
2022/09/26 04:45:38;;;;;;;3.92;0.82;;;11.10;99.90;;;;;;4971577;28;20053;-74
2022/09/26 04:48:03;;;;;;;5.35;0.95;;;11.10;99.90;;;;;;4971167;28;20034;-74
2022/09/26 04:50:29;;;;;;;4.18;1.08;;;11.10;99.90;;;;;;4972922;28;20045;-74
2022/09/26 04:52:54;;;;;;;3.90;0.80;;;11.10;99.90;;;;;;4986175;28;20426;-74
2022/09/26 04:55:20;;;;;;;3.35;0.98;;;11.10;99.90;;;;;;4972156;28;20328;-74
2022/09/26 04:57:49;;;;;;;3.42;0.98;;;11.10;99.90;;;;;;4972570;28;20035;-74
2022/09/26 05:00:17;;;;;;;4.63;1.20;;;11.20;99.90;;;;;;4970411;28;20042;-74
2022/09/26 05:02:44;;;;;;;4.65;0.88;;;11.10;99.90;;;;;;4972123;28;20114;-74
2022/09/26 05:05:10;;;;;;;5.47;1.00;;;11.20;99.90;;;;;;4971544;28;20019;-74
2022/09/26 05:07:40;;;;;;;9.23;2.50;;;11.20;99.90;;;;;;4972492;28;20571;-74
2022/09/26 05:10:09;;;;;;;8.45;1.20;;;11.20;99.90;;;;;;4972196;28;20021;-74
2022/09/26 05:12:38;;;;;;;3.38;1.10;;;11.10;99.90;;;;;;4972640;28;20030;-74
2022/09/26 05:15:07;;;;;;;2.60;1.05;;;11.10;99.90;;;;;;4970735;28;20035;-74
2022/09/26 05:17:33;;;;;;;4.10;1.08;;;11.00;99.90;;;;;;4970567;28;20046;-74
2022/09/26 05:19:59;;;;;;;3.15;1.45;;;11.00;99.90;;;;;;4977193;28;20494;-74
2022/09/26 05:22:29;;;;;;;4.70;1.65;;;11.00;99.90;;;;;;4972388;28;20399;-74
2022/09/26 05:27:39;;;;;;;7.38;1.52;;;10.90;99.90;;;;;;4972681;28;20042;-74
2022/09/26 05:30:05;;;;;;;5.70;1.48;;;10.90;99.90;;;;;;4970635;28;20027;-74
2022/09/26 05:32:30;;;;;;;7.68;1.77;;;10.90;99.90;;;;;;4971940;28;20114;-74
2022/09/26 05:34:56;;;;;;;6.97;1.60;;;10.90;99.90;;;;;;4976272;28;20019;-74
2022/09/26 05:37:21;;;;;;;3.97;1.48;;;10.90;99.90;;;;;;4975281;28;20054;-74
2022/09/26 05:42:31;;;;;;;6.50;1.60;;;10.90;99.90;;;;;;4973485;28;20046;-75
2022/09/26 05:45:00;;;;;;;6.90;1.60;;;10.80;99.90;;;;;;4973325;28;20030;-74
2022/09/26 05:47:30;;;;;;;5.05;1.60;;;10.90;99.90;;;;;;4971985;28;20374;-74
2022/09/26 05:49:56;;;;;;;4.97;1.52;;;10.90;99.90;;;;;;4975149;28;20062;-74
2022/09/26 05:52:21;;;;;;;7.03;1.52;;;10.90;99.90;;;;;;4972794;28;20055;-74
2022/09/26 05:54:47;;;;;;;9.90;1.50;;;10.90;99.90;;;;;;4973832;28;20046;-74
2022/09/26 05:57:12;;;;;;;4.40;1.60;;;10.90;99.90;;;;;;4972143;28;20053;-74
2022/09/26 05:59:38;;;;;;;4.18;1.60;;;10.90;99.90;;;;;;4973095;28;20027;-74
2022/09/26 06:02:05;;;;;;;7.97;1.58;;;10.90;99.90;;;;;;4974793;28;20023;-74
2022/09/26 06:04:31;;;;;;;4.55;1.33;;;10.90;99.90;;;;;;4989834;28;20438;-74
2022/09/26 06:06:56;;;;;;;4.57;1.27;;;10.90;99.90;;;;;;4971817;28;20027;-74
2022/09/26 06:09:22;;;;;;;7.22;1.83;;;10.90;99.90;;;;;;4971954;28;20408;-74
2022/09/26 06:11:47;;;;;;;3.05;1.35;;;10.90;99.90;;;;;;4971914;28;20393;-74
2022/09/26 06:14:13;;;;;;;4.85;1.67;;;10.90;99.90;;;;;;4973585;28;20030;-74
2022/09/26 06:16:39;;;;;;;7.25;1.70;;;11.00;99.90;;;;;;4975162;28;20063;-74
2022/09/26 06:19:04;;;;;;;6.50;1.30;;;11.00;99.90;;;;;;4973594;28;20606;-74
2022/09/26 06:21:30;;;;;;;7.10;1.77;;;11.00;99.90;;;;;;4972059;28;20053;-74
2022/09/26 06:23:55;;;;;;;5.53;1.27;;;11.00;99.90;;;;;;4974706;28;20415;-74
2022/09/26 06:26:23;;;;;;;5.00;1.10;;;11.00;99.90;;;;;;4973778;28;20026;-75
2022/09/26 06:28:58;;;;;;;10.02;1.80;;;11.00;99.90;;;;;;4973929;28;20473;-74
2022/09/26 06:31:24;;;;;;;7.53;1.45;;;11.10;99.90;;;;;;4988497;28;20077;-74
2022/09/26 06:33:54;;;;;;;10.05;1.42;;;11.10;99.90;;;;;;4988476;28;20073;-74
2022/09/26 06:36:21;;;;;;;5.35;1.50;;;11.10;99.90;;;;;;4973564;28;20031;-75
2022/09/26 06:38:47;;;;;;;4.93;1.60;;;11.20;99.90;;;;;;4973241;28;20518;-74
2022/09/26 06:41:13;;;;;;;5.80;1.48;;;11.20;99.90;;;;;;4973998;28;20137;-74
2022/09/26 06:43:39;;;;;;;6.25;2.05;;;11.20;99.90;;;;;;4970771;28;20106;-74
2022/09/26 06:46:08;;;;;;;4.18;1.42;;;11.30;99.90;;;;;;4988659;28;20231;-74
2022/09/26 06:48:34;;;;;;;4.50;1.60;;;11.40;99.90;;;;;;4985213;28;20014;-75
2022/09/26 06:51:00;;;;;;;5.80;1.85;;;11.40;99.90;;;;;;4972928;28;20506;-74
2022/09/26 06:53:26;;;;;;;8.13;2.13;;;11.40;99.90;;;;;;4971985;28;20031;-75
2022/09/26 06:55:51;;;;;;;7.65;1.65;;;11.50;99.90;;;;;;4970637;28;20030;-74
2022/09/26 06:58:17;;;;;;;5.30;1.52;;;11.50;99.90;;;;;;4971072;28;20039;-74
2022/09/26 07:00:43;;;;;;;4.95;1.10;;;11.50;99.90;;;;;;4971944;28;20058;-74
2022/09/26 07:03:08;;;;;;;7.05;2.00;;;11.50;99.90;;;;;;4973030;28;20039;-75
2022/09/26 07:05:34;;;;;;;5.38;1.45;;;11.50;99.90;;;;;;4973401;28;20034;-74
2022/09/26 07:08:00;;;;;;;3.50;1.40;;;11.50;99.90;;;;;;4971235;28;20496;-74
2022/09/26 07:10:29;;;;;;;4.57;1.33;;;11.50;99.90;;;;;;4970737;28;20139;-74
2022/09/26 07:13:01;;;;;;;8.07;1.85;;;11.50;99.90;;;;;;4973330;28;20074;-74
2022/09/26 07:15:29;;;;;;;4.70;1.40;;;11.50;99.90;;;;;;4969799;28;20050;-74
2022/09/26 07:17:56;;;;;;;10.45;2.85;;;11.50;99.90;;;;;;4987334;28;20411;-74
2022/09/26 07:20:22;;;;;;;3.33;1.60;;;11.50;99.90;;;;;;4972543;28;20092;-74
2022/09/26 07:22:48;;;;;;;4.47;1.20;;;11.50;99.90;;;;;;4972256;28;20475;-74
2022/09/26 07:25:13;;;;;;;6.53;2.28;;;11.60;99.90;;;;;;4971835;28;20074;-74
2022/09/26 07:27:39;;;;;;;5.10;1.23;;;11.60;99.90;;;;;;4971404;28;20039;-74
2022/09/26 07:30:06;;;;;;;4.60;1.35;;;11.60;99.90;;;;;;4971118;28;20142;-74
2022/09/26 07:32:32;;;;;;;4.28;1.13;;;11.70;99.90;;;;;;4969886;28;20050;-74
2022/09/26 07:34:58;;;;;;;5.75;1.52;;;11.70;99.90;;;;;;4971585;28;20023;-75
2022/09/26 07:37:24;;;;;;;4.97;1.40;;;11.70;99.90;;;;;;4964200;28;20142;-75
2022/09/26 07:39:50;;;;;;;6.80;1.25;;;11.80;99.90;;;;;;4973043;28;20043;-74
2022/09/26 07:42:16;;;;;;;5.57;1.20;;;11.80;99.90;;;;;;4970220;28;20114;-75
2022/09/26 07:44:43;;;;;;;3.65;1.05;;;11.80;99.90;;;;;;4972707;28;20026;-75
2022/09/26 07:50:12;;;;;;;5.07;1.00;;;11.90;99.90;;;;;;4973563;28;20066;-74
2022/09/26 07:52:42;;;;;;;5.47;1.10;;;11.90;99.90;;;;;;4973271;28;20105;-74
2022/09/26 07:55:09;;;;;;;6.18;1.13;;;12.00;99.90;;;;;;4972626;28;20373;-74
2022/09/26 07:57:35;;;;;;;7.10;1.60;;;12.00;99.90;;;;;;4970357;28;20035;-74
2022/09/26 08:00:03;;;;;;;8.23;1.40;;;12.00;99.90;;;;;;4971947;28;20106;-74
2022/09/26 08:02:32;;;;;;;4.55;0.95;;;12.10;99.90;;;;;;4970115;28;20031;-74
2022/09/26 08:04:58;;;;;;;4.57;1.08;;;12.10;99.90;;;;;;4968361;28;20021;-74
2022/09/26 08:07:24;;;;;;;5.88;0.93;;;12.00;99.90;;;;;;4968024;28;20728;-74
2022/09/26 08:09:52;;;;;;;5.20;0.82;;;12.10;99.90;;;;;;4967198;28;20074;-74
2022/09/26 08:12:18;;;;;;;2.78;0.80;;;12.00;99.90;;;;;;4969630;28;20481;-74
2022/09/26 08:14:47;;;;;;;4.07;0.77;;;12.10;99.90;;;;;;4969102;28;20034;-74
2022/09/26 08:17:14;;;;;;;3.28;0.77;;;12.10;99.90;;;;;;4968731;28;20041;-74
2022/09/26 08:19:40;;;;;;;4.65;0.90;;;12.10;99.90;;;;;;4972674;28;20030;-74
2022/09/26 08:22:07;;;;;;;4.82;0.88;;;12.20;99.90;;;;;;4972768;28;20411;-74
2022/09/26 08:24:32;;;;;;;4.32;1.20;;;12.20;99.90;;;;;;4970914;28;20438;-74
2022/09/26 08:26:59;;;;;;;5.88;1.13;;;12.20;99.90;;;;;;4970359;28;20102;-74
2022/09/26 08:29:25;;;;;;;5.07;1.35;;;12.20;99.90;;;;;;4968212;28;20371;-74
2022/09/26 08:31:51;;;;;;;4.35;1.20;;;12.20;99.90;;;;;;4969340;28;20030;-74
2022/09/26 08:34:20;;;;;;;4.55;0.90;;;12.30;99.90;;;;;;4968741;28;20135;-75
2022/09/26 08:36:52;;;;;;;9.50;1.40;;;12.30;99.90;;;;;;4970488;28;20027;-74
2022/09/26 08:39:18;;;;;;;5.45;1.00;;;12.30;99.90;;;;;;4971208;28;20042;-74
2022/09/26 08:42:09;;;;;;;4.43;1.02;;;12.30;99.90;;;;;;4970566;28;20431;-74
2022/09/26 08:44:45;;;;;;;3.88;1.25;;;12.40;99.90;;;;;;4970788;28;20056;-74
2022/09/26 08:47:46;;;;;;;3.78;1.08;;;12.40;99.90;;;;;;4971702;28;20383;-74
2022/09/26 08:50:25;;;;;;;5.63;1.23;;;12.40;99.90;;;;;;4965219;28;20026;-74
2022/09/26 08:53:01;;;;;;;6.18;1.08;;;12.40;99.90;;;;;;4966203;28;20432;-74
2022/09/26 08:55:31;;;;;;;5.00;0.93;;;12.30;99.90;;;;;;4967170;28;20027;-74
2022/09/26 08:58:25;;;;;;;4.68;1.23;;;12.40;99.90;;;;;;4962445;28;20031;-75
2022/09/26 09:00:56;;;;;;;4.72;1.00;;;12.50;99.90;;;;;;4965296;28;20110;-74
2022/09/26 09:03:30;;;;;;;6.53;1.38;;;12.50;99.90;;;;;;4953773;28;20015;-74
2022/09/26 09:06:06;;;;;;;6.70;1.17;;;12.60;99.90;;;;;;4961707;28;20161;-75
2022/09/26 09:08:43;;;;;;;3.55;0.90;;;12.70;99.90;;;;;;4967480;28;20027;-74
2022/09/26 09:11:24;;;;;;;5.05;1.23;;;12.70;99.90;;;;;;4970257;28;20042;-75
2022/09/26 09:14:11;;;;;;;4.68;1.10;;;12.70;99.90;;;;;;4970659;28;20376;-74
2022/09/26 09:16:57;;;;;;;4.00;0.95;;;12.70;99.90;;;;;;4970115;28;20463;-74
2022/09/26 09:19:49;;;;;;;3.78;0.88;;;12.80;99.90;;;;;;4970609;28;20454;-75
2022/09/26 09:22:59;;;;;;;6.90;1.23;;;12.80;99.90;;;;;;4958695;28;20054;-74
2022/09/26 09:25:48;;;;;;;2.80;0.90;;;12.80;99.90;;;;;;4964339;28;20074;-74
2022/09/26 09:28:42;;;;;;;7.65;1.30;;;12.80;99.90;;;;;;4969642;28;20523;-74
2022/09/26 09:31:12;;;;;;;7.07;1.13;;;12.80;99.90;;;;;;4970722;28;20069;-75
2022/09/26 09:33:48;;;;;;;5.88;1.25;;;12.70;99.90;;;;;;4966281;28;20022;-75
2022/09/26 09:36:21;;;;;;;5.72;1.23;;;12.70;99.90;;;;;;4973716;28;20026;-74
2022/09/26 09:38:49;;;;;;;6.00;1.50;;;12.70;99.90;;;;;;4968822;28;20439;-75
2022/09/26 09:41:30;;;;;;;5.85;1.10;;;12.70;99.90;;;;;;4974469;28;20027;-75
2022/09/26 09:43:59;;;;;;;6.93;1.30;;;12.70;99.90;;;;;;4968806;28;20483;-75
2022/09/26 09:46:31;;;;;;;5.07;1.23;;;12.60;99.90;;;;;;4966627;28;20390;-75
2022/09/26 09:49:20;;;;;;;7.25;1.85;;;12.60;99.90;;;;;;4966910;28;20045;-75
2022/09/26 09:52:18;;;;;;;3.95;1.60;;;12.60;99.90;;;;;;4967677;28;20038;-75
2022/09/26 09:55:08;;;;;;;7.03;1.60;;;12.70;99.90;;;;;;4968378;28;20022;-75
2022/09/26 09:58:15;;;;;;;8.77;1.23;;;12.70;99.90;;;;;;4967798;28;20039;-75
2022/09/26 10:00:46;;;;;;;5.85;1.30;;;12.60;99.90;;;;;;4962023;28;20035;-75
2022/09/26 10:04:02;;;;;;;4.72;1.33;;;12.70;99.90;;;;;;4969500;28;20495;-76
2022/09/26 10:06:31;;;;;;;6.65;1.55;;;12.70;99.90;;;;;;4964247;28;20023;-75
2022/09/26 10:09:04;;;;;;;6.25;1.67;;;12.60;99.90;;;;;;4990160;28;20034;-75
2022/09/26 10:11:41;;;;;;;6.30;1.73;;;12.60;99.90;;;;;;4971264;28;20496;-75
2022/09/26 10:14:14;;;;;;;6.35;1.88;;;12.70;99.90;;;;;;4965560;28;20070;-75
2022/09/26 10:17:10;;;;;;;8.77;2.03;;;12.70;99.90;;;;;;4964531;28;20112;-75
2022/09/26 10:19:39;;;;;;;5.32;1.90;;;12.70;99.90;;;;;;4968841;28;20043;-75
2022/09/26 10:22:10;;;;;;;3.55;1.33;;;12.70;99.90;;;;;;4973154;28;20542;-75
2022/09/26 10:24:39;;;;;;;4.40;1.80;;;12.80;99.90;;;;;;4972139;28;20035;-75
2022/09/26 10:27:23;;;;;;;8.15;1.88;;;12.80;99.90;;;;;;4967946;28;20053;-75
2022/09/26 10:29:59;;;;;;;6.18;1.92;;;12.80;99.90;;;;;;4963066;28;20077;-76
2022/09/26 10:32:25;;;;;;;7.57;1.73;;;12.70;99.90;;;;;;4972112;28;20039;-76
2022/09/26 10:35:25;;;;;;;4.03;1.67;;;12.70;99.90;;;;;;4988923;28;20065;-76
2022/09/26 10:38:02;;;;;;;5.05;1.67;;;12.60;99.90;;;;;;4968322;28;20047;-76
2022/09/26 10:40:46;;;;;;;4.45;1.77;;;12.60;99.90;;;;;;4964239;28;20033;-75
2022/09/26 10:43:29;;;;;;;5.95;1.42;;;12.50;99.90;;;;;;4966949;28;20049;-75
2022/09/26 10:46:13;;;;;;;4.07;1.30;;;12.50;99.90;;;;;;4971225;28;20605;-75
2022/09/26 10:48:46;;;;;;;4.80;1.55;;;12.40;99.90;;;;;;4964898;28;20073;-76
2022/09/26 10:51:30;;;;;;;6.28;1.40;;;12.50;99.90;;;;;;4965603;28;20045;-76
2022/09/26 10:54:10;;;;;;;7.47;1.75;;;12.40;99.90;;;;;;4968114;28;20357;-76
2022/09/26 10:56:41;;;;;;;5.82;1.30;;;12.50;99.90;;;;;;4971680;28;20439;-74
2022/09/26 10:59:08;;;;;;;7.20;1.70;;;12.50;99.90;;;;;;4971476;28;20042;-75
2022/09/26 11:01:41;;;;;;;5.50;1.73;;;12.50;99.90;;;;;;4970139;28;20038;-77
2022/09/26 11:05:55;;;;;;;5.88;1.90;;;12.50;99.90;;;;;;4965711;28;20429;-77
2022/09/26 11:07:04;;;;;;;6.82;2.28;;;12.50;99.90;;;;;;4970616;28;20038;-76
2022/09/26 11:09:30;;;;;;;5.38;1.80;;;12.50;99.90;;;;;;4967737;28;20092;-77
2022/09/26 11:11:55;;;;;;;4.47;2.20;;;12.50;99.90;;;;;;4973497;28;20509;-77
2022/09/26 11:14:30;;;;;;;5.35;1.95;;;12.50;99.90;;;;;;4966526;28;20019;-76
2022/09/26 11:16:56;;;;;;;5.75;2.20;;;12.60;99.90;;;;;;4962874;28;20050;-76
2022/09/26 11:19:43;;;;;;;3.15;1.70;;;12.60;99.90;;;;;;4965340;28;20169;-76
2022/09/26 11:22:36;;;;;;;4.85;1.60;;;12.60;99.90;;;;;;4966657;28;20043;-77
2022/09/26 11:25:24;;;;;;;6.05;2.00;;;12.50;99.90;;;;;;4970767;28;20026;-77
2022/09/26 11:27:52;;;;;;;6.57;2.28;;;12.40;99.90;;;;;;4978104;28;20057;-76
2022/09/26 11:30:20;;;;;;;4.88;1.77;;;12.40;99.90;;;;;;4975003;28;20027;-76
2022/09/26 11:32:59;;;;;;;3.28;1.77;;;12.40;99.90;;;;;;4957585;28;20411;-78
2022/09/26 11:35:55;;;;;;;4.10;1.35;;;12.40;99.90;;;;;;4960866;28;20027;-76
2022/09/26 11:38:39;;;;;;;6.65;1.63;;;12.50;99.90;;;;;;4960809;28;20046;-76
2022/09/26 11:41:37;;;;;;;4.68;1.70;;;12.50;99.90;;;;;;4960061;28;20062;-77
2022/09/26 11:44:44;;;;;;;4.97;1.50;;;12.50;99.90;;;;;;4958890;28;20078;-77
2022/09/26 11:47:38;;;;;;;4.32;1.30;;;12.50;99.90;;;;;;4980902;28;20546;-77
2022/09/26 11:50:27;;;;;;;3.67;1.42;;;12.50;99.90;;;;;;4965440;28;20512;-77
2022/09/26 11:53:21;;;;;;;4.45;1.65;;;12.50;99.90;;;;;;4962029;28;20046;-76
2022/09/26 11:56:14;;;;;;;7.30;1.70;;;12.50;99.90;;;;;;4966073;28;20063;-77
2022/09/26 11:59:01;;;;;;;3.03;1.42;;;12.50;99.90;;;;;;4966364;28;20113;-77
2022/09/26 12:02:05;;;;;;;6.22;1.23;;;12.60;99.90;;;;;;4961164;28;20184;-77
2022/09/26 12:05:12;;;;;;;3.90;1.33;;;12.60;99.90;;;;;;4950951;28;20034;-78
2022/09/26 12:07:54;;;;;;;3.90;1.50;;;12.60;99.90;;;;;;4965166;28;20406;-77
2022/09/26 12:10:24;;;;;;;3.90;1.23;;;12.60;99.90;;;;;;4965531;28;20125;-77
2022/09/26 12:13:13;;;;;;;3.13;1.40;;;12.60;99.90;;;;;;4964122;28;20027;-77
2022/09/26 12:15:54;;;;;;;3.25;1.00;;;12.60;99.90;;;;;;4967613;28;20031;-77
2022/09/26 12:18:36;;;;;;;3.53;0.90;;;12.60;99.90;;;;;;4968464;28;20070;-74
2022/09/26 12:22:27;;;;;;;2.60;1.13;;;12.60;99.90;;;;;;4965457;28;20049;-74
2022/09/26 12:25:25;;;;;;;5.03;1.10;;;12.60;99.90;;;;;;4964680;28;20105;-75
2022/09/26 12:28:26;;;;;;;4.03;1.15;;;12.60;99.90;;;;;;4966186;28;20042;-75
2022/09/26 12:31:08;;;;;;;2.75;0.90;;;12.70;99.90;;;;;;4967119;28;20368;-76
2022/09/26 12:33:57;;;;;;;4.75;1.15;;;12.70;99.90;;;;;;4967510;28;20023;-76
2022/09/26 12:37:00;;;;;;;3.00;1.00;;;12.70;99.90;;;;;;4961128;28;20034;-76
2022/09/26 12:39:46;;;;;;;2.35;0.90;;;12.70;99.90;;;;;;4966644;28;20042;-76
2022/09/26 12:42:40;;;;;;;3.00;0.90;;;12.60;99.90;;;;;;4962809;28;20031;-76
2022/09/26 12:45:52;;;;;;;3.22;1.13;;;12.60;99.90;;;;;;4938964;28;20510;-75
2022/09/26 12:48:18;;;;;;;4.05;1.30;;;12.60;99.90;;;;;;4939412;28;20407;-76
2022/09/26 12:51:27;;;;;;;2.75;0.60;;;12.60;99.90;;;;;;4968475;28;20031;-75
2022/09/26 12:54:49;;;;;;;3.45;1.10;;;12.60;99.90;;;;;;4958279;28;20498;-75
2022/09/26 12:57:27;;;;;;;2.97;0.77;;;12.50;99.90;;;;;;4961449;28;20094;-75
2022/09/26 13:00:21;;;;;;;3.60;1.10;;;12.60;99.90;;;;;;4967718;28;20035;-75
2022/09/26 13:03:11;;;;;;;3.83;0.73;;;12.60;99.90;;;;;;4959308;28;20050;-75
2022/09/26 13:05:54;;;;;;;3.08;0.90;;;12.60;99.90;;;;;;4976991;28;20077;-76
2022/09/26 13:08:41;;;;;;;1.90;0.80;;;12.60;99.90;;;;;;4956123;28;20057;-76
2022/09/26 13:11:37;;;;;;;2.10;0.60;;;12.60;99.90;;;;;;4957694;28;20228;-75
2022/09/26 13:14:11;;;;;;;2.13;0.60;;;12.70;99.90;;;;;;4953125;28;20033;-75
2022/09/26 13:16:54;;;;;;;1.83;0.60;;;12.70;99.90;;;;;;4954497;28;20499;-75
2022/09/26 13:19:47;;;;;;;1.70;0.60;;;12.70;99.90;;;;;;4957097;28;20031;-76
2022/09/26 13:22:21;;;;;;;2.00;0.75;;;12.70;99.90;;;;;;4945783;28;20400;-74
2022/09/26 13:24:54;;;;;;;4.47;0.70;;;12.70;99.90;;;;;;4956985;28;20122;-76
2022/09/26 13:27:28;;;;;;;3.55;0.75;;;12.70;99.90;;;;;;4960263;28;20023;-77
2022/09/26 13:30:07;;;;;;;2.28;0.70;;;12.70;99.90;;;;;;4962743;28;20042;-76
2022/09/26 13:33:23;;;;;;;1.95;0.70;;;12.70;99.90;;;;;;4962383;28;20237;-77
2022/09/26 13:35:51;;;;;;;4.55;0.70;;;12.70;99.90;;;;;;4937541;28;20143;-77
2022/09/26 13:38:29;;;;;;;2.38;0.73;;;12.70;99.90;;;;;;4974012;28;20404;-76